Time;durP1;ratioP1;P1;durP2;ratioP2;P2;SDS_P1;SDS_P2;PMS_P1;PMS_P2;Temp;Humidity;BMP_temperature;BMP_pressure;BME280_temperature;BME280_humidity;BME280_pressure;Samples;Min_cycle;Max_cycle;Signal;HPM_P1;HPM_P2
2023/03/04 00:01:43;;;;;;;20.00;16.08;;;4.00;99.90;;;;;;5051369;28;20209;-82
2023/03/04 00:04:11;;;;;;;22.92;16.17;;;3.90;99.90;;;;;;5050544;28;20206;-82
2023/03/04 00:06:40;;;;;;;18.00;16.08;;;3.90;99.90;;;;;;5050593;28;20267;-81
2023/03/04 00:09:10;;;;;;;19.33;15.38;;;3.90;99.90;;;;;;5053022;28;20226;-84
2023/03/04 00:11:38;;;;;;;21.88;15.55;;;3.80;99.90;;;;;;5053284;28;20212;-81
2023/03/04 00:14:06;;;;;;;20.38;16.38;;;3.80;99.90;;;;;;5053671;28;20206;-82
2023/03/04 00:16:34;;;;;;;23.98;16.30;;;3.80;99.90;;;;;;5053233;28;20236;-82
2023/03/04 00:19:03;;;;;;;24.58;17.92;;;3.80;99.90;;;;;;5052747;28;20261;-82
2023/03/04 00:21:31;;;;;;;23.25;17.08;;;3.80;99.90;;;;;;5053185;28;20202;-81
2023/03/04 00:23:59;;;;;;;27.60;16.85;;;3.80;99.90;;;;;;5053095;28;20202;-81
2023/03/04 00:26:29;;;;;;;23.27;16.63;;;3.80;99.90;;;;;;5053327;28;20206;-82
2023/03/04 00:28:57;;;;;;;20.95;15.75;;;3.80;99.90;;;;;;5052801;28;20228;-82
2023/03/04 00:31:26;;;;;;;20.00;15.32;;;3.80;99.90;;;;;;5053155;28;20216;-82
2023/03/04 00:33:54;;;;;;;23.65;16.08;;;3.80;99.90;;;;;;5052936;28;20518;-82
2023/03/04 00:36:22;;;;;;;22.25;16.15;;;3.80;99.90;;;;;;5052957;28;20228;-82
2023/03/04 00:38:50;;;;;;;17.38;14.73;;;3.80;99.90;;;;;;5052203;28;20225;-82
2023/03/04 00:41:19;;;;;;;32.45;16.60;;;3.80;99.90;;;;;;5053021;28;20210;-82
2023/03/04 00:43:48;;;;;;;20.83;15.95;;;3.80;99.90;;;;;;5053304;28;20212;-82
2023/03/04 00:46:16;;;;;;;19.13;15.63;;;3.70;99.90;;;;;;5053155;28;20201;-82
2023/03/04 00:48:45;;;;;;;21.88;16.20;;;3.60;99.90;;;;;;5051926;28;20325;-82
2023/03/04 00:51:15;;;;;;;19.67;14.82;;;3.70;99.90;;;;;;5052707;28;20202;-82
2023/03/04 00:53:43;;;;;;;24.23;16.83;;;3.70;99.90;;;;;;5052971;28;20217;-83
2023/03/04 00:56:11;;;;;;;21.55;16.08;;;3.60;99.90;;;;;;5052578;28;20201;-83
2023/03/04 00:58:40;;;;;;;30.58;16.92;;;3.60;99.90;;;;;;5052049;28;20217;-83
2023/03/04 01:01:10;;;;;;;19.50;16.05;;;3.60;99.90;;;;;;5052653;28;20233;-83
2023/03/04 01:03:40;;;;;;;21.90;16.27;;;3.60;99.90;;;;;;5052725;28;20228;-83
2023/03/04 01:06:10;;;;;;;18.77;14.75;;;3.60;99.90;;;;;;5052605;28;20225;-83
2023/03/04 01:08:38;;;;;;;18.23;14.95;;;3.60;99.90;;;;;;5051763;28;20252;-83
2023/03/04 01:11:06;;;;;;;21.45;16.00;;;3.60;99.90;;;;;;5052580;28;20221;-82
2023/03/04 01:13:35;;;;;;;20.30;14.63;;;3.50;99.90;;;;;;5052828;28;20210;-82
2023/03/04 01:16:03;;;;;;;23.08;13.07;;;3.50;99.90;;;;;;5052363;28;20205;-82
2023/03/04 01:18:34;;;;;;;23.42;15.70;;;3.50;99.90;;;;;;5051452;28;20226;-81
2023/03/04 01:21:02;;;;;;;24.05;16.63;;;3.50;99.90;;;;;;5052549;28;20198;-83
2023/03/04 01:23:30;;;;;;;17.67;15.15;;;3.50;99.90;;;;;;5052184;28;20216;-82
2023/03/04 01:25:58;;;;;;;19.50;16.08;;;3.40;99.90;;;;;;5052375;28;20210;-83
2023/03/04 01:28:26;;;;;;;22.70;16.25;;;3.40;99.90;;;;;;5051706;28;20208;-82
2023/03/04 01:30:54;;;;;;;20.63;14.45;;;3.40;99.90;;;;;;5052818;28;20205;-83
2023/03/04 01:33:23;;;;;;;17.08;13.82;;;3.30;99.90;;;;;;5052646;28;20213;-82
2023/03/04 01:35:52;;;;;;;16.77;13.80;;;3.40;99.90;;;;;;5052231;28;20204;-83
2023/03/04 01:38:21;;;;;;;17.95;14.23;;;3.30;99.90;;;;;;5051469;28;20256;-83
2023/03/04 01:40:50;;;;;;;19.30;14.43;;;3.30;99.90;;;;;;5052072;28;20324;-83
2023/03/04 01:43:22;;;;;;;17.70;13.52;;;3.20;99.90;;;;;;5052145;28;20224;-83
2023/03/04 01:45:51;;;;;;;13.13;11.23;;;3.20;99.90;;;;;;5052751;28;20210;-83
2023/03/04 01:48:24;;;;;;;14.13;11.18;;;3.20;99.90;;;;;;5051941;28;20248;-83
2023/03/04 01:50:54;;;;;;;19.95;12.15;;;3.20;99.90;;;;;;5052414;28;20293;-83
2023/03/04 01:53:25;;;;;;;13.38;10.20;;;3.30;99.90;;;;;;5052053;28;20206;-83
2023/03/04 01:55:56;;;;;;;16.77;11.40;;;3.30;99.90;;;;;;5052128;28;20229;-83
2023/03/04 01:58:25;;;;;;;15.10;11.30;;;3.40;99.90;;;;;;5051901;28;20222;-83
2023/03/04 02:00:54;;;;;;;14.75;9.77;;;3.50;99.90;;;;;;5055790;28;20202;-83
2023/03/04 02:03:22;;;;;;;14.98;10.60;;;3.50;99.90;;;;;;5056177;28;20197;-83
2023/03/04 02:05:52;;;;;;;23.48;11.02;;;3.50;99.90;;;;;;5055306;28;20213;-81
2023/03/04 02:08:27;;;;;;;13.75;9.20;;;3.60;99.90;;;;;;5055650;28;20201;-81
2023/03/04 02:10:55;;;;;;;15.07;10.60;;;3.60;99.90;;;;;;5056290;28;20212;-82
2023/03/04 02:13:24;;;;;;;13.82;9.85;;;3.60;99.90;;;;;;5055996;28;20205;-82
2023/03/04 02:15:52;;;;;;;22.10;10.35;;;3.70;99.90;;;;;;5055543;28;20216;-81
2023/03/04 02:18:22;;;;;;;12.25;10.25;;;3.70;99.90;;;;;;5055063;28;20221;-82
2023/03/04 02:21:01;;;;;;;17.15;10.65;;;3.70;99.90;;;;;;5055722;28;20206;-82
2023/03/04 02:23:39;;;;;;;15.20;8.77;;;3.70;99.90;;;;;;5055867;28;20292;-82
2023/03/04 02:26:16;;;;;;;12.07;10.48;;;3.70;99.90;;;;;;5055828;28;20201;-81
2023/03/04 02:28:45;;;;;;;15.50;10.15;;;3.60;99.90;;;;;;5054854;28;20204;-83
2023/03/04 02:31:23;;;;;;;13.35;10.35;;;3.70;99.90;;;;;;5055287;28;20206;-82
2023/03/04 02:33:52;;;;;;;14.05;11.00;;;3.70;99.90;;;;;;5055167;28;20260;-82
2023/03/04 02:36:20;;;;;;;10.15;8.23;;;3.70;99.90;;;;;;5055222;28;20206;-82
2023/03/04 02:38:50;;;;;;;10.88;9.65;;;3.70;99.90;;;;;;5054530;28;20229;-82
2023/03/04 02:41:24;;;;;;;11.73;9.18;;;3.70;99.90;;;;;;5055136;28;20202;-82
2023/03/04 02:43:55;;;;;;;12.35;9.75;;;3.70;99.90;;;;;;5055146;28;20205;-82
2023/03/04 02:46:24;;;;;;;10.50;8.73;;;3.60;99.90;;;;;;5055037;28;20205;-82
2023/03/04 02:48:53;;;;;;;14.35;10.35;;;3.60;99.90;;;;;;5054339;28;20222;-82
2023/03/04 02:51:21;;;;;;;16.77;9.52;;;3.60;99.90;;;;;;5055138;28;20209;-83
2023/03/04 02:53:49;;;;;;;10.02;8.80;;;3.60;99.90;;;;;;5055039;28;20221;-82
2023/03/04 02:56:19;;;;;;;12.00;9.35;;;3.50;99.90;;;;;;5054670;28;20205;-82
2023/03/04 02:58:47;;;;;;;16.42;9.27;;;3.50;99.90;;;;;;5054408;28;20237;-82
2023/03/04 03:01:15;;;;;;;13.95;9.85;;;3.50;99.90;;;;;;5055061;28;20201;-82
2023/03/04 03:03:44;;;;;;;10.57;9.23;;;3.50;99.90;;;;;;5054766;28;20284;-82
2023/03/04 03:06:12;;;;;;;8.40;7.60;;;3.50;99.90;;;;;;5054593;28;20210;-82
2023/03/04 03:08:40;;;;;;;10.93;8.60;;;3.50;99.90;;;;;;5053965;28;20217;-82
2023/03/04 03:11:08;;;;;;;11.32;8.30;;;3.40;99.90;;;;;;5054688;28;20213;-82
2023/03/04 03:13:38;;;;;;;11.32;9.15;;;3.40;99.90;;;;;;5054647;28;20205;-82
2023/03/04 03:16:07;;;;;;;9.55;8.55;;;3.40;99.90;;;;;;5055035;28;20209;-82
2023/03/04 03:18:35;;;;;;;16.77;12.40;;;3.40;99.90;;;;;;5054019;28;20226;-82
2023/03/04 03:21:03;;;;;;;12.13;10.55;;;3.50;99.90;;;;;;5054522;28;20206;-83
2023/03/04 03:23:32;;;;;;;18.17;11.38;;;3.50;99.90;;;;;;5054078;28;20217;-82
2023/03/04 03:26:00;;;;;;;17.92;11.60;;;3.50;99.90;;;;;;5054481;28;20220;-82
2023/03/04 03:28:28;;;;;;;16.38;13.35;;;3.40;99.90;;;;;;5054165;28;20220;-83
2023/03/04 03:30:58;;;;;;;24.33;15.82;;;3.40;99.90;;;;;;5054760;28;20216;-83
2023/03/04 03:33:27;;;;;;;23.25;16.10;;;3.50;99.90;;;;;;5054282;28;20209;-83
2023/03/04 03:35:55;;;;;;;21.38;14.80;;;3.50;99.90;;;;;;5053736;28;20206;-83
2023/03/04 03:38:23;;;;;;;24.88;17.00;;;3.50;99.90;;;;;;5053483;28;20313;-82
2023/03/04 03:40:52;;;;;;;27.52;20.02;;;3.60;99.90;;;;;;5054144;28;20210;-83
2023/03/04 03:43:20;;;;;;;29.70;21.88;;;3.70;99.90;;;;;;5054486;28;20202;-83
2023/03/04 03:45:50;;;;;;;28.30;22.55;;;3.70;99.90;;;;;;5054288;28;20213;-83
2023/03/04 03:48:20;;;;;;;31.67;23.02;;;3.80;99.90;;;;;;5053668;28;20216;-83
2023/03/04 03:50:48;;;;;;;32.40;23.55;;;3.80;99.90;;;;;;5054106;28;20227;-83
2023/03/04 03:53:17;;;;;;;34.40;25.08;;;3.90;99.90;;;;;;5054080;28;20214;-83
2023/03/04 03:55:45;;;;;;;39.45;28.20;;;3.90;99.90;;;;;;5053914;28;20206;-83
2023/03/04 03:58:13;;;;;;;36.55;24.65;;;3.90;99.90;;;;;;5053453;28;20217;-83
2023/03/04 04:00:41;;;;;;;31.90;24.27;;;4.00;99.90;;;;;;5053582;28;20225;-83
2023/03/04 04:03:14;;;;;;;31.55;23.00;;;4.00;99.90;;;;;;5053559;28;20222;-83
2023/03/04 04:05:44;;;;;;;33.65;24.35;;;4.00;99.90;;;;;;5053295;28;20292;-83
2023/03/04 04:08:13;;;;;;;39.85;26.92;;;3.90;99.90;;;;;;5052996;28;20205;-83
2023/03/04 04:10:42;;;;;;;37.03;25.10;;;4.00;99.90;;;;;;5054190;28;20225;-83
2023/03/04 04:13:10;;;;;;;32.17;25.83;;;4.00;99.90;;;;;;5053348;28;20221;-83
2023/03/04 04:15:39;;;;;;;33.00;25.85;;;4.00;99.90;;;;;;5053435;28;20233;-83
2023/03/04 04:18:08;;;;;;;42.00;29.15;;;4.00;99.90;;;;;;5052785;28;20202;-83
2023/03/04 04:20:37;;;;;;;37.05;28.73;;;4.10;99.90;;;;;;5053463;28;20233;-83
2023/03/04 04:23:06;;;;;;;33.13;25.83;;;4.10;99.90;;;;;;5052818;28;20210;-83
2023/03/04 04:25:34;;;;;;;37.08;26.75;;;4.10;99.90;;;;;;5053488;28;20216;-83
2023/03/04 04:28:03;;;;;;;32.40;26.30;;;4.10;99.90;;;;;;5053165;28;20209;-83
2023/03/04 04:30:31;;;;;;;33.50;27.05;;;4.10;99.90;;;;;;5053182;28;20230;-83
2023/03/04 04:33:00;;;;;;;40.85;29.15;;;4.20;99.90;;;;;;5053366;28;20263;-84
2023/03/04 04:35:29;;;;;;;33.38;27.55;;;4.20;99.90;;;;;;5052868;28;20209;-83
2023/03/04 04:37:57;;;;;;;34.00;27.55;;;4.20;99.90;;;;;;5052901;28;20211;-83
2023/03/04 04:40:27;;;;;;;46.75;29.85;;;4.30;99.90;;;;;;5052717;28;20255;-83
2023/03/04 04:42:56;;;;;;;33.67;27.00;;;4.30;99.90;;;;;;5053604;28;20202;-83
2023/03/04 04:45:25;;;;;;;40.33;29.42;;;4.40;99.90;;;;;;5053149;28;20205;-83
2023/03/04 04:47:54;;;;;;;39.33;28.23;;;4.40;99.90;;;;;;5052370;28;20205;-83
2023/03/04 04:50:22;;;;;;;42.40;28.52;;;4.40;99.90;;;;;;5052768;28;20232;-83
2023/03/04 04:52:50;;;;;;;41.97;29.35;;;4.40;99.90;;;;;;5053074;28;20220;-83
2023/03/04 04:55:19;;;;;;;39.55;28.15;;;4.50;99.90;;;;;;5052452;28;20210;-83
2023/03/04 04:57:48;;;;;;;34.75;27.98;;;4.50;99.90;;;;;;5052241;28;20208;-83
2023/03/04 05:00:19;;;;;;;33.80;26.67;;;4.50;99.90;;;;;;5052443;28;20233;-83
2023/03/04 05:02:47;;;;;;;35.88;27.55;;;4.60;99.90;;;;;;5052917;28;20206;-83
2023/03/04 05:05:15;;;;;;;37.35;28.73;;;4.60;99.90;;;;;;5052843;28;20236;-83
2023/03/04 05:07:44;;;;;;;35.90;26.67;;;4.60;99.90;;;;;;5052114;28;20216;-83
2023/03/04 05:10:12;;;;;;;40.50;27.00;;;4.60;99.90;;;;;;5052462;28;20225;-83
2023/03/04 05:12:40;;;;;;;39.47;26.65;;;4.70;99.90;;;;;;5052767;28;20206;-83
2023/03/04 05:15:11;;;;;;;40.97;26.25;;;4.70;99.90;;;;;;5052520;28;20202;-84
2023/03/04 05:17:40;;;;;;;38.47;25.35;;;4.70;99.90;;;;;;5052334;28;20201;-83
2023/03/04 05:20:10;;;;;;;35.45;25.25;;;4.80;99.90;;;;;;5052311;28;20304;-83
2023/03/04 05:22:38;;;;;;;34.58;27.02;;;4.90;99.90;;;;;;5052638;28;20209;-83
2023/03/04 05:25:07;;;;;;;39.53;27.63;;;4.90;99.90;;;;;;5052480;28;20292;-83
2023/03/04 05:27:35;;;;;;;40.70;25.80;;;4.90;99.90;;;;;;5051988;28;20212;-83
2023/03/04 05:30:04;;;;;;;40.05;28.13;;;5.00;99.90;;;;;;5052475;28;20348;-83
2023/03/04 05:32:34;;;;;;;34.60;25.58;;;5.10;99.90;;;;;;5052208;28;20214;-83
2023/03/04 05:35:02;;;;;;;35.38;25.35;;;5.10;99.90;;;;;;5056067;28;20213;-83
2023/03/04 05:37:31;;;;;;;39.75;27.40;;;5.10;99.90;;;;;;5055832;28;20289;-83
2023/03/04 05:39:59;;;;;;;34.28;26.75;;;5.20;99.90;;;;;;5056144;28;20228;-83
2023/03/04 05:42:27;;;;;;;35.75;25.90;;;5.30;99.90;;;;;;5056438;28;20235;-83
2023/03/04 05:44:55;;;;;;;35.15;25.42;;;5.30;99.90;;;;;;5056184;28;20201;-83
2023/03/04 05:47:24;;;;;;;46.33;25.17;;;5.30;99.90;;;;;;5055597;28;20202;-83
2023/03/04 05:49:54;;;;;;;33.28;25.30;;;5.40;99.90;;;;;;5056015;28;20224;-83
2023/03/04 05:52:23;;;;;;;33.47;25.75;;;5.40;99.90;;;;;;5056335;28;20205;-83
2023/03/04 05:54:51;;;;;;;32.08;24.88;;;5.40;99.90;;;;;;5056205;28;20220;-83
2023/03/04 05:57:19;;;;;;;27.42;24.33;;;5.40;99.90;;;;;;5055667;28;20212;-83
2023/03/04 05:59:47;;;;;;;50.28;24.67;;;5.40;99.90;;;;;;5055642;28;20222;-83
2023/03/04 06:02:15;;;;;;;34.72;25.52;;;5.50;99.90;;;;;;5055922;28;20214;-83
2023/03/04 06:04:44;;;;;;;37.58;26.95;;;5.50;99.90;;;;;;5055805;28;20221;-83
2023/03/04 06:07:13;;;;;;;33.15;26.58;;;5.50;99.90;;;;;;5055204;28;20206;-83
2023/03/04 06:09:43;;;;;;;32.22;26.92;;;5.50;99.90;;;;;;5055608;28;20221;-83
2023/03/04 06:12:12;;;;;;;39.33;28.08;;;5.50;99.90;;;;;;5055602;28;20212;-83
2023/03/04 06:14:40;;;;;;;40.67;25.38;;;5.50;99.90;;;;;;5055567;28;20210;-83
2023/03/04 06:17:09;;;;;;;36.60;25.67;;;5.60;99.90;;;;;;5055337;28;20209;-83
2023/03/04 06:19:37;;;;;;;30.65;24.25;;;5.60;99.90;;;;;;5055288;28;20233;-83
2023/03/04 06:22:06;;;;;;;35.83;25.58;;;5.60;99.90;;;;;;5055598;28;20202;-83
2023/03/04 06:24:36;;;;;;;35.88;26.50;;;5.70;99.90;;;;;;5055750;28;20216;-83
2023/03/04 06:27:05;;;;;;;34.45;25.23;;;5.70;99.90;;;;;;5054981;28;20289;-83
2023/03/04 06:29:34;;;;;;;40.45;25.60;;;5.60;99.90;;;;;;5055593;28;20226;-83
2023/03/04 06:32:02;;;;;;;32.80;24.70;;;5.70;99.90;;;;;;5055472;28;20213;-83
2023/03/04 06:34:32;;;;;;;33.83;25.00;;;5.70;99.90;;;;;;5055425;28;20302;-83
2023/03/04 06:37:01;;;;;;;29.85;23.63;;;5.70;99.90;;;;;;5054858;28;20205;-83
2023/03/04 06:39:29;;;;;;;31.52;24.35;;;5.80;99.90;;;;;;5055062;28;20221;-83
2023/03/04 06:41:59;;;;;;;30.75;21.23;;;5.80;99.90;;;;;;5055292;28;20221;-83
2023/03/04 06:44:27;;;;;;;35.45;26.08;;;5.80;99.90;;;;;;5055408;28;20197;-83
2023/03/04 06:46:56;;;;;;;32.50;24.95;;;5.90;99.90;;;;;;5054231;28;20208;-83
2023/03/04 06:49:25;;;;;;;34.28;22.85;;;5.90;99.90;;;;;;5054656;28;20253;-83
2023/03/04 06:51:53;;;;;;;32.60;24.67;;;6.00;99.90;;;;;;5055247;28;20205;-83
2023/03/04 06:54:21;;;;;;;25.95;20.70;;;6.00;99.90;;;;;;5054987;28;20209;-83
2023/03/04 06:56:50;;;;;;;32.75;24.85;;;6.10;99.90;;;;;;5054617;28;20201;-83
2023/03/04 06:59:19;;;;;;;33.10;23.00;;;6.10;99.90;;;;;;5054952;28;20226;-83
2023/03/04 07:01:48;;;;;;;30.90;23.77;;;6.20;99.90;;;;;;5054400;28;20237;-83
2023/03/04 07:04:19;;;;;;;32.72;24.88;;;6.20;99.90;;;;;;5054675;28;20223;-83
2023/03/04 07:06:47;;;;;;;32.60;24.02;;;6.20;99.90;;;;;;5053891;28;20213;-83
2023/03/04 07:09:16;;;;;;;36.17;22.17;;;6.30;99.90;;;;;;5054200;28;20228;-83
2023/03/04 07:11:44;;;;;;;34.00;25.95;;;6.30;99.90;;;;;;5054719;28;20209;-83
2023/03/04 07:14:13;;;;;;;35.53;24.23;;;6.30;99.90;;;;;;5054515;28;20300;-83
2023/03/04 07:16:43;;;;;;;30.27;20.98;;;6.30;99.90;;;;;;5054165;28;20210;-83
2023/03/04 07:19:11;;;;;;;31.25;25.55;;;6.40;99.90;;;;;;5054642;28;20226;-83
2023/03/04 07:21:40;;;;;;;29.98;25.63;;;6.50;99.90;;;;;;5054553;28;20226;-83
2023/03/04 07:24:08;;;;;;;31.33;24.65;;;6.50;99.90;;;;;;5054474;28;20206;-83
2023/03/04 07:26:37;;;;;;;40.30;27.08;;;6.50;99.90;;;;;;5054745;28;20204;-83
2023/03/04 07:29:05;;;;;;;30.08;25.38;;;6.60;99.90;;;;;;5054000;28;20226;-83
2023/03/04 07:31:35;;;;;;;31.38;22.05;;;6.60;99.90;;;;;;5054472;28;20216;-83
2023/03/04 07:34:07;;;;;;;34.08;23.10;;;6.70;99.90;;;;;;5054202;28;20201;-83
2023/03/04 07:36:36;;;;;;;28.83;22.25;;;6.70;99.90;;;;;;5054333;28;20301;-83
2023/03/04 07:39:06;;;;;;;28.17;22.60;;;6.80;99.90;;;;;;5053767;28;20222;-83
2023/03/04 07:41:36;;;;;;;34.15;27.33;;;6.90;99.90;;;;;;5054138;28;20244;-84
2023/03/04 07:44:06;;;;;;;31.52;24.30;;;6.90;99.90;;;;;;5054350;28;20278;-81
2023/03/04 07:46:34;;;;;;;38.53;27.70;;;7.00;99.90;;;;;;5054121;28;20205;-83
2023/03/04 07:49:03;;;;;;;39.53;26.60;;;7.00;99.90;;;;;;5053248;28;20237;-83
2023/03/04 07:51:33;;;;;;;35.90;26.88;;;7.00;99.90;;;;;;5053910;28;20209;-83
2023/03/04 07:54:02;;;;;;;36.72;26.35;;;7.10;99.90;;;;;;5053851;28;20208;-82
2023/03/04 07:56:32;;;;;;;27.77;23.80;;;7.10;99.90;;;;;;5053109;28;20209;-82
2023/03/04 07:59:01;;;;;;;38.42;28.10;;;7.10;99.90;;;;;;5053067;28;20228;-82
2023/03/04 08:01:32;;;;;;;33.33;25.15;;;7.30;99.90;;;;;;5053765;28;20221;-82
2023/03/04 08:04:00;;;;;;;30.27;25.35;;;7.30;99.90;;;;;;5053544;28;20209;-82
2023/03/04 08:06:29;;;;;;;41.60;26.27;;;7.30;99.90;;;;;;5053164;28;20209;-82
2023/03/04 08:09:01;;;;;;;31.75;23.00;;;7.40;99.90;;;;;;5052764;28;20222;-82
2023/03/04 08:11:30;;;;;;;45.55;25.88;;;7.40;99.90;;;;;;5053554;28;20288;-82
2023/03/04 08:13:59;;;;;;;36.90;24.02;;;7.50;99.90;;;;;;5053361;28;20201;-82
2023/03/04 08:16:27;;;;;;;33.55;23.23;;;7.50;99.90;;;;;;5053674;28;20205;-82
2023/03/04 08:18:57;;;;;;;31.25;24.75;;;7.60;99.90;;;;;;5052933;28;20321;-81
2023/03/04 08:21:27;;;;;;;32.00;25.15;;;7.60;99.90;;;;;;5053050;28;20226;-81
2023/03/04 08:24:00;;;;;;;30.90;24.05;;;7.70;99.90;;;;;;5053607;28;20228;-81
2023/03/04 08:26:33;;;;;;;26.38;20.75;;;7.60;99.90;;;;;;5053206;28;20261;-81
2023/03/04 08:29:04;;;;;;;30.63;19.45;;;7.70;99.90;;;;;;5052586;28;20264;-82
2023/03/04 08:31:33;;;;;;;28.55;22.27;;;7.70;99.90;;;;;;5053101;28;20212;-81
2023/03/04 08:34:03;;;;;;;33.53;22.58;;;7.80;99.90;;;;;;5052904;28;20213;-82
2023/03/04 08:36:31;;;;;;;39.38;26.65;;;7.90;99.90;;;;;;5053025;28;20292;-82
2023/03/04 08:39:01;;;;;;;33.22;21.58;;;8.00;99.90;;;;;;5052532;28;20230;-82
2023/03/04 08:41:29;;;;;;;29.25;19.70;;;8.00;99.90;;;;;;5052841;28;20280;-82
2023/03/04 08:43:58;;;;;;;29.00;21.38;;;8.10;99.90;;;;;;5052946;28;20212;-82
2023/03/04 08:46:27;;;;;;;22.73;17.20;;;8.10;99.90;;;;;;5052720;28;20209;-82
2023/03/04 08:48:55;;;;;;;33.35;23.23;;;8.20;99.90;;;;;;5052453;28;20229;-82
2023/03/04 08:51:23;;;;;;;27.55;20.42;;;8.20;99.90;;;;;;5053002;28;20206;-82
2023/03/04 08:53:52;;;;;;;24.60;21.88;;;8.20;99.90;;;;;;5052820;28;20209;-82
2023/03/04 08:56:22;;;;;;;23.80;19.38;;;8.30;99.90;;;;;;5052834;28;20209;-82
2023/03/04 08:58:50;;;;;;;31.90;20.13;;;8.40;99.90;;;;;;5052037;28;20232;-82
2023/03/04 09:01:19;;;;;;;26.80;20.50;;;8.50;99.90;;;;;;5052656;28;20230;-82
2023/03/04 09:03:47;;;;;;;22.55;18.25;;;8.60;99.90;;;;;;5052855;28;20217;-82
2023/03/04 09:06:17;;;;;;;24.25;19.27;;;8.80;99.90;;;;;;5052284;28;20217;-82
2023/03/04 09:08:47;;;;;;;24.17;19.10;;;8.80;99.90;;;;;;5051688;28;20209;-82
2023/03/04 09:11:15;;;;;;;29.10;19.65;;;9.00;99.90;;;;;;5052612;28;20216;-82
2023/03/04 09:13:45;;;;;;;;;;;9.10;99.90;;;;;;5053595;28;20218;-82
2023/03/04 09:16:14;;;;;;;;;;;9.30;99.90;;;;;;5053510;28;20240;-82
2023/03/04 09:18:42;;;;;;;;;;;9.50;99.90;;;;;;5052594;28;20261;-84
2023/03/04 09:21:10;;;;;;;;;;;9.70;99.90;;;;;;5052566;28;20233;-82
2023/03/04 09:23:38;;;;;;;;;;;9.90;99.90;;;;;;5052900;28;20080;-83
2023/03/04 09:26:16;;;;;;;;;;;9.90;99.90;;;;;;5053157;28;20247;-82
2023/03/04 09:28:45;;;;;;;;;;;10.00;99.90;;;;;;5052492;28;20234;-84
2023/03/04 09:31:14;;;;;;;;;;;10.20;99.90;;;;;;5052668;28;20218;-82
2023/03/04 09:33:42;;;;;;;;;;;10.70;99.90;;;;;;5052972;28;20216;-82
2023/03/04 09:36:11;;;;;;;;;;;11.10;99.90;;;;;;5052686;28;20232;-82
2023/03/04 09:38:42;;;;;;;;;;;11.50;97.80;;;;;;5051927;28;20234;-82
2023/03/04 09:41:13;;;;;;;;;;;11.40;96.60;;;;;;5052645;28;20236;-82
2023/03/04 09:43:41;;;;;;;;;;;11.40;95.90;;;;;;5053109;28;20219;-82
2023/03/04 09:46:14;;;;;;;;;;;11.50;95.40;;;;;;5052924;28;20091;-82
2023/03/04 09:48:44;;;;;;;;;;;11.70;94.70;;;;;;5051661;28;20312;-82
2023/03/04 09:51:19;;;;;;;;;;;12.20;93.30;;;;;;5052071;28;25073;-83
2023/03/04 09:53:57;;;;;;;12.37;9.83;;;12.10;92.30;;;;;;5052392;28;20222;-84
2023/03/04 09:56:26;;;;;;;12.40;9.90;;;12.10;92.00;;;;;;5052537;28;20235;-82
2023/03/04 09:59:00;;;;;;;;;;;11.90;91.70;;;;;;5051859;28;20250;-82
2023/03/04 10:01:34;;;;;;;;;;;11.80;91.00;;;;;;5052073;28;20288;-82
2023/03/04 10:04:04;;;;;;;;;;;11.70;90.90;;;;;;5052180;28;20244;-82
2023/03/04 10:06:33;;;;;;;10.80;9.40;;;11.70;90.80;;;;;;5051934;28;20242;-82
2023/03/04 10:09:06;;;;;;;15.75;9.90;;;11.60;90.80;;;;;;5051238;28;25085;-82
2023/03/04 10:11:39;;;;;;;12.02;9.45;;;11.40;90.70;;;;;;5051998;28;20267;-82
2023/03/04 10:14:28;;;;;;;12.60;11.00;;;11.70;90.80;;;;;;5051877;28;20216;-83
2023/03/04 10:17:00;;;;;;;;;;;11.10;91.60;;;;;;5051523;28;20265;-82
2023/03/04 10:19:31;;;;;;;;;;;11.10;91.60;;;;;;5052007;28;25084;-82
2023/03/04 10:21:59;;;;;;;;;;;11.20;91.60;;;;;;5055601;28;20264;-82
2023/03/04 10:24:28;;;;;;;;;;;11.10;91.10;;;;;;5055970;28;20251;-82
2023/03/04 10:27:00;;;;;;;;;;;11.30;91.50;;;;;;5054996;28;20255;-82
2023/03/04 10:29:30;;;;;;;;;;;11.40;90.40;;;;;;5055525;28;20267;-82
2023/03/04 10:31:59;;;;;;;;;;;11.40;89.70;;;;;;5055572;28;20253;-82
2023/03/04 10:34:28;;;;;;;;;;;11.30;89.50;;;;;;5055947;28;20206;-84
2023/03/04 10:36:59;;;;;;;8.50;7.60;;;11.20;87.70;;;;;;5054986;28;20247;-84
2023/03/04 10:39:31;;;;;;;7.90;7.20;;;11.60;87.80;;;;;;5055104;28;20282;-82
2023/03/04 10:42:04;;;;;;;16.45;8.15;;;11.70;88.40;;;;;;5055023;28;25116;-82
2023/03/04 10:44:36;;;;;;;12.95;7.80;;;11.90;87.30;;;;;;5055737;28;25061;-82
2023/03/04 10:47:10;;;;;;;15.65;8.20;;;12.10;86.80;;;;;;5054698;28;20256;-82
2023/03/04 10:49:51;;;;;;;11.40;9.07;;;12.40;86.60;;;;;;5055184;28;20221;-82
2023/03/04 10:52:27;;;;;;;10.13;8.77;;;12.60;86.00;;;;;;5055026;28;20209;-82
2023/03/04 10:54:58;;;;;;;13.32;9.18;;;12.50;85.10;;;;;;5055402;28;20222;-82
2023/03/04 10:57:34;;;;;;;9.60;7.22;;;12.60;85.40;;;;;;5054529;28;20219;-84
2023/03/04 11:00:19;;;;;;;10.43;8.18;;;12.70;85.60;;;;;;5055096;28;20250;-82
2023/03/04 11:02:49;;;;;;;10.48;8.43;;;12.60;86.50;;;;;;5054915;28;20236;-82
2023/03/04 11:05:20;;;;;;;10.00;9.00;;;13.00;85.90;;;;;;5054883;28;20237;-82
2023/03/04 11:07:50;;;;;;;;;;;13.50;85.90;;;;;;5054481;28;20152;-82
2023/03/04 11:10:28;;;;;;;13.15;10.48;;;14.40;83.50;;;;;;5054816;28;20325;-82
2023/03/04 11:13:00;;;;;;;;;;;14.60;79.90;;;;;;5055375;28;20053;-82
2023/03/04 11:15:31;;;;;;;8.95;8.13;;;15.20;79.30;;;;;;5055012;28;20095;-82
2023/03/04 11:18:02;;;;;;;;;;;15.20;76.00;;;;;;5054562;28;20063;-82
2023/03/04 11:20:32;;;;;;;;;;;15.30;75.60;;;;;;5054775;28;20011;-84
2023/03/04 11:23:04;;;;;;;12.75;9.63;;;15.50;74.70;;;;;;5054251;28;20249;-84
2023/03/04 11:25:36;;;;;;;10.43;9.43;;;15.10;72.60;;;;;;5054501;28;20231;-84
2023/03/04 11:28:06;;;;;;;;;;;14.60;74.60;;;;;;5054536;28;20068;-84
2023/03/04 11:30:42;;;;;;;9.32;8.43;;;15.10;74.00;;;;;;5054680;28;20342;-84
2023/03/04 11:33:20;;;;;;;9.63;8.63;;;15.10;72.90;;;;;;5054116;28;20259;-84
2023/03/04 11:35:53;;;;;;;;;;;15.00;74.30;;;;;;5054952;28;20257;-84
2023/03/04 11:38:27;;;;;;;15.50;10.00;;;15.30;74.70;;;;;;5053618;28;19967;-84
2023/03/04 11:40:57;;;;;;;;;;;15.60;73.00;;;;;;5054685;28;20207;-83
2023/03/04 11:43:32;;;;;;;10.20;9.00;;;15.90;71.60;;;;;;5053989;28;20252;-85
2023/03/04 11:46:14;;;;;;;;;;;16.00;71.20;;;;;;5054466;28;20234;-85
2023/03/04 11:48:49;;;;;;;;;;;15.90;69.60;;;;;;5053976;28;19931;-84
2023/03/04 11:51:21;;;;;;;;;;;16.10;69.40;;;;;;5054279;28;19932;-84
2023/03/04 11:53:57;;;;;;;;;;;16.20;68.70;;;;;;5054273;28;19959;-84
2023/03/04 11:56:31;;;;;;;;;;;16.40;68.50;;;;;;5054427;28;20094;-83
2023/03/04 11:59:17;;;;;;;;;;;15.60;68.40;;;;;;5052863;28;20200;-83
2023/03/04 12:01:51;;;;;;;;;;;15.20;66.90;;;;;;5053101;28;20251;-83
2023/03/04 12:04:34;;;;;;;;;;;14.30;68.90;;;;;;5053074;28;20255;-83
2023/03/04 12:07:09;;;;;;;;;;;14.20;68.70;;;;;;5051440;28;20217;-83
2023/03/04 12:09:42;;;;;;;;;;;14.30;67.60;;;;;;5054036;28;20237;-83
2023/03/04 12:12:22;;;;;;;;;;;14.00;69.30;;;;;;5054006;28;19978;-83
2023/03/04 12:14:56;;;;;;;;;;;14.50;70.60;;;;;;5053742;28;19979;-83
2023/03/04 12:17:29;;;;;;;;;;;14.50;70.80;;;;;;5053787;28;19921;-82
2023/03/04 12:20:09;;;;;;;;;;;14.80;70.70;;;;;;5053984;28;19959;-83
2023/03/04 12:22:45;;;;;;;8.85;8.05;;;14.90;69.60;;;;;;5053847;28;20073;-83
2023/03/04 12:25:23;;;;;;;;;;;14.90;67.60;;;;;;5053647;28;20067;-82
2023/03/04 12:27:55;;;;;;;;;;;14.70;68.60;;;;;;5053005;28;19921;-82
2023/03/04 12:30:30;;;;;;;;;;;14.70;69.20;;;;;;5053989;28;19927;-83
2023/03/04 12:33:03;;;;;;;;;;;15.00;71.00;;;;;;5054010;28;19951;-83
2023/03/04 12:35:36;;;;;;;;;;;15.30;70.90;;;;;;5053765;28;19928;-83
2023/03/04 12:38:34;;;;;;;11.35;8.80;;;15.80;70.10;;;;;;5052188;28;20068;-83
2023/03/04 12:41:06;;;;;;;;;;;15.00;68.80;;;;;;5053444;28;19951;-82
2023/03/04 12:43:43;;;;;;;;;;;14.30;69.50;;;;;;5052099;28;19966;-82
2023/03/04 12:46:19;;;;;;;;;;;14.20;70.80;;;;;;5053765;28;20099;-83
2023/03/04 12:48:51;;;;;;;;;;;14.20;70.20;;;;;;5052559;28;19990;-83
2023/03/04 12:51:25;;;;;;;;;;;14.80;68.80;;;;;;5053443;28;19929;-83
2023/03/04 12:54:01;;;;;;;;;;;14.90;67.80;;;;;;5053430;28;19996;-83
2023/03/04 12:56:33;;;;;;;;;;;15.00;68.10;;;;;;5053271;28;19920;-85
2023/03/04 12:59:01;;;;;;;;;;;15.50;70.30;;;;;;5052960;28;19981;-85
2023/03/04 13:01:33;;;;;;;;;;;15.30;72.10;;;;;;5053735;28;20029;-85
2023/03/04 13:04:04;;;;;;;;;;;14.90;71.80;;;;;;5052909;28;19973;-85
2023/03/04 13:06:36;;;;;;;;;;;14.80;70.60;;;;;;5052979;28;19972;-82
2023/03/04 13:09:10;;;;;;;;;;;14.10;71.00;;;;;;5052345;28;19924;-83
2023/03/04 13:11:42;;;;;;;;;;;13.90;72.20;;;;;;5053668;28;19944;-83
2023/03/04 13:14:22;;;;;;;;;;;13.50;73.30;;;;;;5053750;28;19963;-82